sensor_id;sensor_type;location;lat;lon;timestamp;temperature;humidity
20827;DHT22;10574;52.508;13.236;2023-11-22T00:00:47;0.70;99.90
20827;DHT22;10574;52.508;13.236;2023-11-22T00:03:15;0.70;99.90
20827;DHT22;10574;52.508;13.236;2023-11-22T00:05:42;0.70;99.90
20827;DHT22;10574;52.508;13.236;2023-11-22T00:08:10;0.70;99.90
20827;DHT22;10574;52.508;13.236;2023-11-22T00:10:38;0.80;99.90
20827;DHT22;10574;52.508;13.236;2023-11-22T00:13:05;0.70;99.90
20827;DHT22;10574;52.508;13.236;2023-11-22T00:15:33;0.70;99.90
20827;DHT22;10574;52.508;13.236;2023-11-22T00:18:02;0.70;99.90
20827;DHT22;10574;52.508;13.236;2023-11-22T00:20:30;0.70;99.90
20827;DHT22;10574;52.508;13.236;2023-11-22T00:22:59;0.80;99.90
20827;DHT22;10574;52.508;13.236;2023-11-22T00:25:27;0.80;99.90
20827;DHT22;10574;52.508;13.236;2023-11-22T00:27:55;0.80;99.90
20827;DHT22;10574;52.508;13.236;2023-11-22T00:30:23;0.80;99.90
20827;DHT22;10574;52.508;13.236;2023-11-22T00:32:50;0.80;99.90
20827;DHT22;10574;52.508;13.236;2023-11-22T00:35:18;0.70;99.90
20827;DHT22;10574;52.508;13.236;2023-11-22T00:37:46;0.80;99.90
20827;DHT22;10574;52.508;13.236;2023-11-22T00:40:13;0.70;99.90
20827;DHT22;10574;52.508;13.236;2023-11-22T00:42:41;0.70;99.90
20827;DHT22;10574;52.508;13.236;2023-11-22T00:45:10;0.70;99.90
20827;DHT22;10574;52.508;13.236;2023-11-22T00:47:38;0.70;99.90
20827;DHT22;10574;52.508;13.236;2023-11-22T00:50:06;0.60;99.90
20827;DHT22;10574;52.508;13.236;2023-11-22T00:52:34;0.60;99.90
20827;DHT22;10574;52.508;13.236;2023-11-22T00:55:02;0.60;99.90
20827;DHT22;10574;52.508;13.236;2023-11-22T00:57:29;0.60;99.90
20827;DHT22;10574;52.508;13.236;2023-11-22T00:59:57;0.60;99.90
20827;DHT22;10574;52.508;13.236;2023-11-22T01:02:25;0.60;99.90
20827;DHT22;10574;52.508;13.236;2023-11-22T01:04:53;0.60;99.90
20827;DHT22;10574;52.508;13.236;2023-11-22T01:10:43;0.60;99.90
20827;DHT22;10574;52.508;13.236;2023-11-22T01:13:10;0.60;99.90
20827;DHT22;10574;52.508;13.236;2023-11-22T01:15:41;0.50;99.90
20827;DHT22;10574;52.508;13.236;2023-11-22T01:18:09;0.50;99.90
20827;DHT22;10574;52.508;13.236;2023-11-22T01:20:36;0.40;99.90
20827;DHT22;10574;52.508;13.236;2023-11-22T01:23:04;0.40;99.90
20827;DHT22;10574;52.508;13.236;2023-11-22T01:25:32;0.40;99.90
20827;DHT22;10574;52.508;13.236;2023-11-22T01:28:00;0.40;99.90
20827;DHT22;10574;52.508;13.236;2023-11-22T01:30:28;0.30;99.90
20827;DHT22;10574;52.508;13.236;2023-11-22T01:32:56;0.30;99.90
20827;DHT22;10574;52.508;13.236;2023-11-22T01:35:23;0.20;99.90
20827;DHT22;10574;52.508;13.236;2023-11-22T01:37:51;0.20;99.90
20827;DHT22;10574;52.508;13.236;2023-11-22T01:40:19;0.20;99.90
20827;DHT22;10574;52.508;13.236;2023-11-22T01:42:47;0.20;99.90
20827;DHT22;10574;52.508;13.236;2023-11-22T01:45:14;0.10;99.90
20827;DHT22;10574;52.508;13.236;2023-11-22T01:47:42;0.10;99.90
20827;DHT22;10574;52.508;13.236;2023-11-22T01:50:10;0.00;99.90
20827;DHT22;10574;52.508;13.236;2023-11-22T01:52:39;0.00;99.90
20827;DHT22;10574;52.508;13.236;2023-11-22T01:55:07;0.00;99.90
20827;DHT22;10574;52.508;13.236;2023-11-22T01:57:36;0.00;99.90
20827;DHT22;10574;52.508;13.236;2023-11-22T02:00:05;0.00;99.90
20827;DHT22;10574;52.508;13.236;2023-11-22T02:02:34;-0.10;99.90
20827;DHT22;10574;52.508;13.236;2023-11-22T02:05:02;0.00;99.90
20827;DHT22;10574;52.508;13.236;2023-11-22T02:07:30;0.00;99.90
20827;DHT22;10574;52.508;13.236;2023-11-22T02:09:59;0.00;99.90
20827;DHT22;10574;52.508;13.236;2023-11-22T02:12:29;-0.10;99.90
20827;DHT22;10574;52.508;13.236;2023-11-22T02:14:56;-0.10;99.90
20827;DHT22;10574;52.508;13.236;2023-11-22T02:17:24;-0.10;99.90
20827;DHT22;10574;52.508;13.236;2023-11-22T02:19:52;-0.10;99.90
20827;DHT22;10574;52.508;13.236;2023-11-22T02:22:19;-0.20;99.90
20827;DHT22;10574;52.508;13.236;2023-11-22T02:24:48;-0.20;99.90
20827;DHT22;10574;52.508;13.236;2023-11-22T02:27:15;-0.20;99.90
20827;DHT22;10574;52.508;13.236;2023-11-22T02:29:43;-0.20;99.90
20827;DHT22;10574;52.508;13.236;2023-11-22T02:32:12;-0.20;99.90
20827;DHT22;10574;52.508;13.236;2023-11-22T02:34:39;-0.20;99.90
20827;DHT22;10574;52.508;13.236;2023-11-22T02:37:07;-0.20;99.90
20827;DHT22;10574;52.508;13.236;2023-11-22T02:39:48;-0.20;99.90
20827;DHT22;10574;52.508;13.236;2023-11-22T02:42:14;-0.30;99.90
20827;DHT22;10574;52.508;13.236;2023-11-22T02:44:42;-0.30;99.90
20827;DHT22;10574;52.508;13.236;2023-11-22T02:47:10;-0.30;99.90
20827;DHT22;10574;52.508;13.236;2023-11-22T02:49:37;-0.30;99.90
20827;DHT22;10574;52.508;13.236;2023-11-22T02:52:05;-0.30;99.90
20827;DHT22;10574;52.508;13.236;2023-11-22T02:54:33;-0.30;99.90
20827;DHT22;10574;52.508;13.236;2023-11-22T02:57:01;-0.30;99.90
20827;DHT22;10574;52.508;13.236;2023-11-22T02:59:29;-0.30;99.90
20827;DHT22;10574;52.508;13.236;2023-11-22T03:01:56;-0.30;99.90
20827;DHT22;10574;52.508;13.236;2023-11-22T03:04:26;-0.30;99.90
20827;DHT22;10574;52.508;13.236;2023-11-22T03:06:54;-0.30;99.90
20827;DHT22;10574;52.508;13.236;2023-11-22T03:09:23;-0.30;99.90
20827;DHT22;10574;52.508;13.236;2023-11-22T03:11:50;-0.40;99.90
20827;DHT22;10574;52.508;13.236;2023-11-22T03:14:18;-0.40;99.90
20827;DHT22;10574;52.508;13.236;2023-11-22T03:16:46;-0.50;99.90
20827;DHT22;10574;52.508;13.236;2023-11-22T03:19:13;-0.50;99.90
20827;DHT22;10574;52.508;13.236;2023-11-22T03:21:41;-0.50;99.90
20827;DHT22;10574;52.508;13.236;2023-11-22T03:24:11;-0.60;99.90
20827;DHT22;10574;52.508;13.236;2023-11-22T03:26:39;-0.60;99.90
20827;DHT22;10574;52.508;13.236;2023-11-22T03:29:07;-0.60;99.90
20827;DHT22;10574;52.508;13.236;2023-11-22T03:31:34;-0.60;99.90
20827;DHT22;10574;52.508;13.236;2023-11-22T03:34:03;-0.70;99.90
20827;DHT22;10574;52.508;13.236;2023-11-22T03:36:31;-0.80;99.90
20827;DHT22;10574;52.508;13.236;2023-11-22T03:38:59;-0.80;99.90
20827;DHT22;10574;52.508;13.236;2023-11-22T03:41:32;-0.80;99.90
20827;DHT22;10574;52.508;13.236;2023-11-22T03:43:56;-0.80;99.90
20827;DHT22;10574;52.508;13.236;2023-11-22T03:46:23;-0.90;99.90
20827;DHT22;10574;52.508;13.236;2023-11-22T03:48:51;-0.90;99.90
20827;DHT22;10574;52.508;13.236;2023-11-22T03:51:19;-0.80;99.90
20827;DHT22;10574;52.508;13.236;2023-11-22T03:53:46;-0.80;99.90
20827;DHT22;10574;52.508;13.236;2023-11-22T03:56:19;-0.90;99.90
20827;DHT22;10574;52.508;13.236;2023-11-22T03:58:47;-0.90;99.90
20827;DHT22;10574;52.508;13.236;2023-11-22T04:01:15;-0.90;99.90
20827;DHT22;10574;52.508;13.236;2023-11-22T04:03:44;-0.90;99.90
20827;DHT22;10574;52.508;13.236;2023-11-22T04:06:12;-0.90;99.90
20827;DHT22;10574;52.508;13.236;2023-11-22T04:08:40;-0.90;99.90
20827;DHT22;10574;52.508;13.236;2023-11-22T04:11:08;-0.90;99.90
20827;DHT22;10574;52.508;13.236;2023-11-22T04:13:36;-0.90;99.90
20827;DHT22;10574;52.508;13.236;2023-11-22T04:16:05;-1.00;99.90
20827;DHT22;10574;52.508;13.236;2023-11-22T04:18:41;-1.10;99.90
20827;DHT22;10574;52.508;13.236;2023-11-22T04:21:09;-1.10;99.90
20827;DHT22;10574;52.508;13.236;2023-11-22T04:23:38;-1.20;99.90
20827;DHT22;10574;52.508;13.236;2023-11-22T04:26:06;-1.20;99.90
20827;DHT22;10574;52.508;13.236;2023-11-22T04:28:34;-1.10;99.90
20827;DHT22;10574;52.508;13.236;2023-11-22T04:31:02;-1.10;99.90
20827;DHT22;10574;52.508;13.236;2023-11-22T04:33:30;-1.10;99.90
20827;DHT22;10574;52.508;13.236;2023-11-22T04:35:58;-1.20;99.90
20827;DHT22;10574;52.508;13.236;2023-11-22T04:38:26;-1.20;99.90
20827;DHT22;10574;52.508;13.236;2023-11-22T04:40:54;-1.20;99.90
20827;DHT22;10574;52.508;13.236;2023-11-22T04:43:25;-1.20;99.90
20827;DHT22;10574;52.508;13.236;2023-11-22T04:45:54;-1.20;99.90
20827;DHT22;10574;52.508;13.236;2023-11-22T04:48:22;-1.20;99.90
20827;DHT22;10574;52.508;13.236;2023-11-22T04:50:50;-1.20;99.90
20827;DHT22;10574;52.508;13.236;2023-11-22T04:53:19;-1.20;99.90
20827;DHT22;10574;52.508;13.236;2023-11-22T04:55:47;-1.20;99.90
20827;DHT22;10574;52.508;13.236;2023-11-22T04:58:15;-1.20;99.90
20827;DHT22;10574;52.508;13.236;2023-11-22T05:00:43;-1.20;99.90
20827;DHT22;10574;52.508;13.236;2023-11-22T05:03:12;-1.20;99.90
20827;DHT22;10574;52.508;13.236;2023-11-22T05:05:39;-1.20;99.90
20827;DHT22;10574;52.508;13.236;2023-11-22T05:08:07;-1.20;99.90
20827;DHT22;10574;52.508;13.236;2023-11-22T05:10:35;-1.20;99.90
20827;DHT22;10574;52.508;13.236;2023-11-22T05:13:03;-1.20;99.90
20827;DHT22;10574;52.508;13.236;2023-11-22T05:15:32;-1.20;99.90
20827;DHT22;10574;52.508;13.236;2023-11-22T05:18:00;-1.20;99.90
20827;DHT22;10574;52.508;13.236;2023-11-22T05:20:28;-1.20;99.90
20827;DHT22;10574;52.508;13.236;2023-11-22T05:22:57;-1.40;99.90
20827;DHT22;10574;52.508;13.236;2023-11-22T05:25:24;-1.40;99.90
20827;DHT22;10574;52.508;13.236;2023-11-22T05:27:53;-1.40;99.90
20827;DHT22;10574;52.508;13.236;2023-11-22T05:30:21;-1.40;99.90
20827;DHT22;10574;52.508;13.236;2023-11-22T05:32:49;-1.30;99.90
20827;DHT22;10574;52.508;13.236;2023-11-22T05:35:20;-1.30;99.90
20827;DHT22;10574;52.508;13.236;2023-11-22T05:37:50;-1.30;99.90
20827;DHT22;10574;52.508;13.236;2023-11-22T05:40:18;-1.30;99.90
20827;DHT22;10574;52.508;13.236;2023-11-22T05:42:46;-1.30;99.90
20827;DHT22;10574;52.508;13.236;2023-11-22T05:45:14;-1.30;99.90
20827;DHT22;10574;52.508;13.236;2023-11-22T05:47:42;-1.40;99.90
20827;DHT22;10574;52.508;13.236;2023-11-22T05:50:10;-1.50;99.90
20827;DHT22;10574;52.508;13.236;2023-11-22T05:52:39;-1.40;99.90
20827;DHT22;10574;52.508;13.236;2023-11-22T05:55:08;-1.50;99.90
20827;DHT22;10574;52.508;13.236;2023-11-22T05:57:36;-1.50;99.90
20827;DHT22;10574;52.508;13.236;2023-11-22T06:00:04;-1.60;99.90
20827;DHT22;10574;52.508;13.236;2023-11-22T06:02:32;-1.60;99.90
20827;DHT22;10574;52.508;13.236;2023-11-22T06:05:04;-1.60;99.90
20827;DHT22;10574;52.508;13.236;2023-11-22T06:07:33;-1.60;99.90
20827;DHT22;10574;52.508;13.236;2023-11-22T06:10:01;-1.60;99.90
20827;DHT22;10574;52.508;13.236;2023-11-22T06:14:57;-1.50;99.90
20827;DHT22;10574;52.508;13.236;2023-11-22T06:17:29;-1.50;99.90
20827;DHT22;10574;52.508;13.236;2023-11-22T06:19:57;-1.50;99.90
20827;DHT22;10574;52.508;13.236;2023-11-22T06:22:25;-1.50;99.90
20827;DHT22;10574;52.508;13.236;2023-11-22T06:24:53;-1.50;99.90
20827;DHT22;10574;52.508;13.236;2023-11-22T06:27:22;-1.60;99.90
20827;DHT22;10574;52.508;13.236;2023-11-22T06:29:51;-1.60;99.90
20827;DHT22;10574;52.508;13.236;2023-11-22T06:32:19;-1.60;99.90
20827;DHT22;10574;52.508;13.236;2023-11-22T06:34:46;-1.60;99.90
20827;DHT22;10574;52.508;13.236;2023-11-22T06:37:14;-1.60;99.90
20827;DHT22;10574;52.508;13.236;2023-11-22T06:39:42;-1.70;99.90
20827;DHT22;10574;52.508;13.236;2023-11-22T06:42:10;-1.70;99.90
20827;DHT22;10574;52.508;13.236;2023-11-22T06:44:37;-1.70;99.90
20827;DHT22;10574;52.508;13.236;2023-11-22T06:47:06;-1.70;99.90
20827;DHT22;10574;52.508;13.236;2023-11-22T06:49:34;-1.70;99.90
20827;DHT22;10574;52.508;13.236;2023-11-22T06:52:02;-1.70;99.90
20827;DHT22;10574;52.508;13.236;2023-11-22T06:54:29;-1.80;99.90
20827;DHT22;10574;52.508;13.236;2023-11-22T06:56:57;-1.80;99.90
20827;DHT22;10574;52.508;13.236;2023-11-22T06:59:25;-1.80;99.90
20827;DHT22;10574;52.508;13.236;2023-11-22T07:01:53;-1.80;99.90
20827;DHT22;10574;52.508;13.236;2023-11-22T07:04:22;-1.80;99.90
20827;DHT22;10574;52.508;13.236;2023-11-22T07:06:50;-1.70;99.90
20827;DHT22;10574;52.508;13.236;2023-11-22T07:09:18;-1.80;99.90
20827;DHT22;10574;52.508;13.236;2023-11-22T07:11:45;-1.70;99.90
20827;DHT22;10574;52.508;13.236;2023-11-22T07:14:13;-1.70;99.90
20827;DHT22;10574;52.508;13.236;2023-11-22T07:16:41;-1.70;99.90
20827;DHT22;10574;52.508;13.236;2023-11-22T07:19:09;-1.70;99.90
20827;DHT22;10574;52.508;13.236;2023-11-22T07:21:38;-1.60;99.90
20827;DHT22;10574;52.508;13.236;2023-11-22T07:24:07;-1.60;99.90
20827;DHT22;10574;52.508;13.236;2023-11-22T07:26:35;-1.60;99.90
20827;DHT22;10574;52.508;13.236;2023-11-22T07:29:03;-1.60;99.90
20827;DHT22;10574;52.508;13.236;2023-11-22T07:31:32;-1.60;99.90
20827;DHT22;10574;52.508;13.236;2023-11-22T07:34:00;-1.60;99.90
20827;DHT22;10574;52.508;13.236;2023-11-22T07:36:30;-1.60;99.90
20827;DHT22;10574;52.508;13.236;2023-11-22T07:38:57;-1.50;99.90
20827;DHT22;10574;52.508;13.236;2023-11-22T07:41:25;-1.40;99.90
20827;DHT22;10574;52.508;13.236;2023-11-22T07:43:57;-1.40;99.90
20827;DHT22;10574;52.508;13.236;2023-11-22T07:46:25;-1.40;99.90
20827;DHT22;10574;52.508;13.236;2023-11-22T07:48:54;-1.40;99.90
20827;DHT22;10574;52.508;13.236;2023-11-22T07:51:21;-1.30;99.90
20827;DHT22;10574;52.508;13.236;2023-11-22T07:53:50;-1.20;99.90
20827;DHT22;10574;52.508;13.236;2023-11-22T07:56:18;-1.20;99.90
20827;DHT22;10574;52.508;13.236;2023-11-22T07:58:46;-1.10;99.90
20827;DHT22;10574;52.508;13.236;2023-11-22T08:01:14;-1.10;99.90
20827;DHT22;10574;52.508;13.236;2023-11-22T08:03:42;-1.00;99.90
20827;DHT22;10574;52.508;13.236;2023-11-22T08:06:11;-1.10;99.90
20827;DHT22;10574;52.508;13.236;2023-11-22T08:08:39;-1.10;99.90
20827;DHT22;10574;52.508;13.236;2023-11-22T08:11:07;-1.00;99.90
20827;DHT22;10574;52.508;13.236;2023-11-22T08:13:44;-0.90;99.90
20827;DHT22;10574;52.508;13.236;2023-11-22T08:16:11;-0.80;99.90
20827;DHT22;10574;52.508;13.236;2023-11-22T08:18:41;-0.60;99.90
20827;DHT22;10574;52.508;13.236;2023-11-22T08:21:09;-0.60;99.90
20827;DHT22;10574;52.508;13.236;2023-11-22T08:23:37;-0.60;99.90
20827;DHT22;10574;52.508;13.236;2023-11-22T08:26:06;-0.60;99.90
20827;DHT22;10574;52.508;13.236;2023-11-22T08:28:35;-0.60;99.90
20827;DHT22;10574;52.508;13.236;2023-11-22T08:31:04;-0.60;99.90
20827;DHT22;10574;52.508;13.236;2023-11-22T08:33:34;-0.50;99.90
20827;DHT22;10574;52.508;13.236;2023-11-22T08:36:01;-0.50;99.90
20827;DHT22;10574;52.508;13.236;2023-11-22T08:38:31;-0.50;99.90
20827;DHT22;10574;52.508;13.236;2023-11-22T08:41:06;-0.40;99.90
20827;DHT22;10574;52.508;13.236;2023-11-22T08:43:35;-0.40;99.90
20827;DHT22;10574;52.508;13.236;2023-11-22T08:46:03;-0.40;99.90
20827;DHT22;10574;52.508;13.236;2023-11-22T08:48:31;-0.40;99.90
20827;DHT22;10574;52.508;13.236;2023-11-22T08:50:59;-0.30;99.90
20827;DHT22;10574;52.508;13.236;2023-11-22T08:53:28;-0.20;99.90
20827;DHT22;10574;52.508;13.236;2023-11-22T08:55:56;-0.10;99.90
20827;DHT22;10574;52.508;13.236;2023-11-22T08:58:24;0.00;99.90
20827;DHT22;10574;52.508;13.236;2023-11-22T09:00:52;0.00;99.90
20827;DHT22;10574;52.508;13.236;2023-11-22T09:03:20;0.10;99.90
20827;DHT22;10574;52.508;13.236;2023-11-22T09:05:49;0.00;99.90
20827;DHT22;10574;52.508;13.236;2023-11-22T09:08:16;0.00;99.90
20827;DHT22;10574;52.508;13.236;2023-11-22T09:10:45;0.20;99.90
20827;DHT22;10574;52.508;13.236;2023-11-22T09:13:13;0.20;99.90
20827;DHT22;10574;52.508;13.236;2023-11-22T09:15:43;0.20;99.90
20827;DHT22;10574;52.508;13.236;2023-11-22T09:18:13;0.30;99.90
20827;DHT22;10574;52.508;13.236;2023-11-22T09:20:42;0.40;99.90
20827;DHT22;10574;52.508;13.236;2023-11-22T09:23:12;0.50;99.90
20827;DHT22;10574;52.508;13.236;2023-11-22T09:25:41;0.60;99.90
20827;DHT22;10574;52.508;13.236;2023-11-22T09:28:09;0.50;99.90
20827;DHT22;10574;52.508;13.236;2023-11-22T09:30:37;0.60;99.90
20827;DHT22;10574;52.508;13.236;2023-11-22T09:33:14;0.70;99.90
20827;DHT22;10574;52.508;13.236;2023-11-22T09:35:44;0.80;99.90
20827;DHT22;10574;52.508;13.236;2023-11-22T12:07:38;3.10;99.90
20827;DHT22;10574;52.508;13.236;2023-11-22T12:10:10;3.20;99.90
20827;DHT22;10574;52.508;13.236;2023-11-22T12:12:43;3.20;99.90
20827;DHT22;10574;52.508;13.236;2023-11-22T12:15:27;3.20;99.90
20827;DHT22;10574;52.508;13.236;2023-11-22T12:18:16;3.20;99.90
20827;DHT22;10574;52.508;13.236;2023-11-22T12:23:49;3.20;99.90
20827;DHT22;10574;52.508;13.236;2023-11-22T12:26:20;3.20;99.90
20827;DHT22;10574;52.508;13.236;2023-11-22T12:28:49;3.30;99.90
20827;DHT22;10574;52.508;13.236;2023-11-22T12:31:17;3.20;99.90
20827;DHT22;10574;52.508;13.236;2023-11-22T12:33:45;3.20;99.90
20827;DHT22;10574;52.508;13.236;2023-11-22T12:36:14;3.30;99.90
20827;DHT22;10574;52.508;13.236;2023-11-22T12:38:43;3.20;99.90
20827;DHT22;10574;52.508;13.236;2023-11-22T12:41:11;3.10;99.90
20827;DHT22;10574;52.508;13.236;2023-11-22T12:44:01;3.10;99.90
20827;DHT22;10574;52.508;13.236;2023-11-22T12:46:17;3.00;99.90
20827;DHT22;10574;52.508;13.236;2023-11-22T12:48:45;3.10;99.90
20827;DHT22;10574;52.508;13.236;2023-11-22T12:51:16;3.20;99.90
20827;DHT22;10574;52.508;13.236;2023-11-22T12:53:51;3.30;99.90
20827;DHT22;10574;52.508;13.236;2023-11-22T12:56:20;3.30;99.90
20827;DHT22;10574;52.508;13.236;2023-11-22T12:58:48;3.40;99.90
20827;DHT22;10574;52.508;13.236;2023-11-22T13:01:30;3.30;99.90
20827;DHT22;10574;52.508;13.236;2023-11-22T13:04:01;3.30;99.90
20827;DHT22;10574;52.508;13.236;2023-11-22T13:06:30;3.30;99.90
20827;DHT22;10574;52.508;13.236;2023-11-22T13:11:55;3.10;99.90
20827;DHT22;10574;52.508;13.236;2023-11-22T13:14:24;3.00;99.90
20827;DHT22;10574;52.508;13.236;2023-11-22T13:16:54;3.00;99.90
20827;DHT22;10574;52.508;13.236;2023-11-22T13:19:22;3.00;99.90
20827;DHT22;10574;52.508;13.236;2023-11-22T13:21:49;3.00;99.90
20827;DHT22;10574;52.508;13.236;2023-11-22T13:24:17;3.00;99.90
20827;DHT22;10574;52.508;13.236;2023-11-22T13:26:46;3.00;99.90
20827;DHT22;10574;52.508;13.236;2023-11-22T13:29:14;2.90;99.90
20827;DHT22;10574;52.508;13.236;2023-11-22T13:31:42;2.90;99.90
20827;DHT22;10574;52.508;13.236;2023-11-22T13:34:10;3.00;99.90
20827;DHT22;10574;52.508;13.236;2023-11-22T13:36:37;2.90;99.90
20827;DHT22;10574;52.508;13.236;2023-11-22T13:39:05;3.00;99.90
20827;DHT22;10574;52.508;13.236;2023-11-22T13:41:33;3.00;99.90
20827;DHT22;10574;52.508;13.236;2023-11-22T13:44:01;2.90;99.90
20827;DHT22;10574;52.508;13.236;2023-11-22T13:46:29;2.90;99.90
20827;DHT22;10574;52.508;13.236;2023-11-22T13:48:57;2.90;99.90
20827;DHT22;10574;52.508;13.236;2023-11-22T13:51:26;2.80;99.90
20827;DHT22;10574;52.508;13.236;2023-11-22T13:53:54;2.60;99.90
20827;DHT22;10574;52.508;13.236;2023-11-22T13:56:22;2.60;99.90
20827;DHT22;10574;52.508;13.236;2023-11-22T13:58:50;2.50;99.90
20827;DHT22;10574;52.508;13.236;2023-11-22T14:01:17;2.50;99.90
20827;DHT22;10574;52.508;13.236;2023-11-22T14:03:47;2.50;99.90
20827;DHT22;10574;52.508;13.236;2023-11-22T14:06:15;2.50;99.90
20827;DHT22;10574;52.508;13.236;2023-11-22T14:08:43;2.50;99.90
20827;DHT22;10574;52.508;13.236;2023-11-22T14:11:12;2.50;99.90
20827;DHT22;10574;52.508;13.236;2023-11-22T14:13:39;2.50;99.90
20827;DHT22;10574;52.508;13.236;2023-11-22T14:16:08;2.40;99.90
20827;DHT22;10574;52.508;13.236;2023-11-22T14:18:36;2.40;99.90
20827;DHT22;10574;52.508;13.236;2023-11-22T14:21:05;2.40;99.90
20827;DHT22;10574;52.508;13.236;2023-11-22T14:23:38;2.30;99.90
20827;DHT22;10574;52.508;13.236;2023-11-22T14:26:35;2.30;99.90
20827;DHT22;10574;52.508;13.236;2023-11-22T14:29:12;2.30;99.90
20827;DHT22;10574;52.508;13.236;2023-11-22T14:31:40;2.20;99.90
20827;DHT22;10574;52.508;13.236;2023-11-22T14:34:08;2.20;99.90
20827;DHT22;10574;52.508;13.236;2023-11-22T14:36:37;2.10;99.90
20827;DHT22;10574;52.508;13.236;2023-11-22T14:39:05;2.00;99.90
20827;DHT22;10574;52.508;13.236;2023-11-22T14:41:35;2.00;99.90
20827;DHT22;10574;52.508;13.236;2023-11-22T14:44:02;1.90;99.90
20827;DHT22;10574;52.508;13.236;2023-11-22T14:46:31;1.90;99.90
20827;DHT22;10574;52.508;13.236;2023-11-22T14:49:00;1.90;99.90
20827;DHT22;10574;52.508;13.236;2023-11-22T14:51:28;1.70;99.90
20827;DHT22;10574;52.508;13.236;2023-11-22T14:53:56;1.70;99.90
20827;DHT22;10574;52.508;13.236;2023-11-22T14:56:24;1.60;99.90
20827;DHT22;10574;52.508;13.236;2023-11-22T14:58:52;1.60;99.90
20827;DHT22;10574;52.508;13.236;2023-11-22T15:01:21;1.60;99.90
20827;DHT22;10574;52.508;13.236;2023-11-22T15:03:51;1.40;99.90
20827;DHT22;10574;52.508;13.236;2023-11-22T15:06:20;1.40;99.90
20827;DHT22;10574;52.508;13.236;2023-11-22T15:08:48;1.40;99.90
20827;DHT22;10574;52.508;13.236;2023-11-22T15:11:17;1.40;99.90
20827;DHT22;10574;52.508;13.236;2023-11-22T15:13:45;1.30;99.90
20827;DHT22;10574;52.508;13.236;2023-11-22T15:16:13;1.30;99.90
20827;DHT22;10574;52.508;13.236;2023-11-22T15:18:44;1.30;99.90
20827;DHT22;10574;52.508;13.236;2023-11-22T15:21:13;1.30;99.90
20827;DHT22;10574;52.508;13.236;2023-11-22T15:23:41;1.40;99.90
20827;DHT22;10574;52.508;13.236;2023-11-22T15:26:09;1.40;99.90
20827;DHT22;10574;52.508;13.236;2023-11-22T15:28:36;1.30;99.90
20827;DHT22;10574;52.508;13.236;2023-11-22T15:31:04;1.30;99.90
20827;DHT22;10574;52.508;13.236;2023-11-22T15:33:32;1.30;99.90
20827;DHT22;10574;52.508;13.236;2023-11-22T15:36:05;1.30;99.90
20827;DHT22;10574;52.508;13.236;2023-11-22T15:38:49;1.30;99.90
20827;DHT22;10574;52.508;13.236;2023-11-22T15:41:18;1.30;99.90
20827;DHT22;10574;52.508;13.236;2023-11-22T15:43:46;1.20;99.90
20827;DHT22;10574;52.508;13.236;2023-11-22T15:46:14;1.20;99.90
20827;DHT22;10574;52.508;13.236;2023-11-22T15:48:43;1.20;99.90
20827;DHT22;10574;52.508;13.236;2023-11-22T15:51:11;1.10;99.90
20827;DHT22;10574;52.508;13.236;2023-11-22T15:53:39;1.10;99.90
20827;DHT22;10574;52.508;13.236;2023-11-22T15:56:07;1.10;99.90
20827;DHT22;10574;52.508;13.236;2023-11-22T15:58:37;1.10;99.90
20827;DHT22;10574;52.508;13.236;2023-11-22T16:01:06;1.10;99.90
20827;DHT22;10574;52.508;13.236;2023-11-22T16:03:34;1.10;99.90
20827;DHT22;10574;52.508;13.236;2023-11-22T16:06:02;1.00;99.90
20827;DHT22;10574;52.508;13.236;2023-11-22T16:08:30;1.00;99.90
20827;DHT22;10574;52.508;13.236;2023-11-22T16:10:58;0.90;99.90
20827;DHT22;10574;52.508;13.236;2023-11-22T16:13:26;0.90;99.90
20827;DHT22;10574;52.508;13.236;2023-11-22T16:15:55;0.80;99.90
20827;DHT22;10574;52.508;13.236;2023-11-22T16:18:24;0.80;99.90
20827;DHT22;10574;52.508;13.236;2023-11-22T16:21:01;0.80;99.90
20827;DHT22;10574;52.508;13.236;2023-11-22T16:43:29;0.80;99.90
20827;DHT22;10574;52.508;13.236;2023-11-22T16:49:51;0.70;99.90
20827;DHT22;10574;52.508;13.236;2023-11-22T16:52:22;0.70;99.90
20827;DHT22;10574;52.508;13.236;2023-11-22T16:54:52;0.70;99.90
20827;DHT22;10574;52.508;13.236;2023-11-22T16:57:19;0.70;99.90
20827;DHT22;10574;52.508;13.236;2023-11-22T16:59:47;0.70;99.90
20827;DHT22;10574;52.508;13.236;2023-11-22T17:02:15;0.70;99.90
20827;DHT22;10574;52.508;13.236;2023-11-22T17:04:45;0.60;99.90
20827;DHT22;10574;52.508;13.236;2023-11-22T17:07:15;0.70;99.90
20827;DHT22;10574;52.508;13.236;2023-11-22T17:09:43;0.70;99.90
20827;DHT22;10574;52.508;13.236;2023-11-22T17:12:11;0.70;99.90
20827;DHT22;10574;52.508;13.236;2023-11-22T17:14:39;0.70;99.90
20827;DHT22;10574;52.508;13.236;2023-11-22T17:17:06;0.70;99.90
20827;DHT22;10574;52.508;13.236;2023-11-22T17:19:34;0.70;99.90
20827;DHT22;10574;52.508;13.236;2023-11-22T17:22:02;0.80;99.90
20827;DHT22;10574;52.508;13.236;2023-11-22T17:24:30;0.70;99.90
20827;DHT22;10574;52.508;13.236;2023-11-22T17:26:58;0.70;99.90
20827;DHT22;10574;52.508;13.236;2023-11-22T17:29:26;0.70;99.90
20827;DHT22;10574;52.508;13.236;2023-11-22T17:31:55;0.70;99.90
20827;DHT22;10574;52.508;13.236;2023-11-22T17:34:23;0.70;99.90
20827;DHT22;10574;52.508;13.236;2023-11-22T17:36:51;0.70;99.90
20827;DHT22;10574;52.508;13.236;2023-11-22T17:42:52;0.70;99.90
20827;DHT22;10574;52.508;13.236;2023-11-22T17:48:46;0.70;99.90
20827;DHT22;10574;52.508;13.236;2023-11-22T17:51:16;0.70;99.90
20827;DHT22;10574;52.508;13.236;2023-11-22T17:53:54;0.70;99.90
20827;DHT22;10574;52.508;13.236;2023-11-22T17:59:52;0.70;99.90
20827;DHT22;10574;52.508;13.236;2023-11-22T18:02:22;0.70;99.90
20827;DHT22;10574;52.508;13.236;2023-11-22T18:04:49;0.70;99.90
20827;DHT22;10574;52.508;13.236;2023-11-22T18:07:17;0.60;99.90
20827;DHT22;10574;52.508;13.236;2023-11-22T18:09:45;0.60;99.90
20827;DHT22;10574;52.508;13.236;2023-11-22T18:12:13;0.60;99.90
20827;DHT22;10574;52.508;13.236;2023-11-22T18:14:41;0.50;99.90
20827;DHT22;10574;52.508;13.236;2023-11-22T18:17:11;0.50;99.90
20827;DHT22;10574;52.508;13.236;2023-11-22T18:19:38;0.50;99.90
20827;DHT22;10574;52.508;13.236;2023-11-22T18:22:06;0.50;99.90
20827;DHT22;10574;52.508;13.236;2023-11-22T18:24:34;0.50;99.90
20827;DHT22;10574;52.508;13.236;2023-11-22T18:27:02;0.50;99.90
20827;DHT22;10574;52.508;13.236;2023-11-22T18:29:29;0.50;99.90
20827;DHT22;10574;52.508;13.236;2023-11-22T18:31:57;0.50;99.90
20827;DHT22;10574;52.508;13.236;2023-11-22T18:34:25;0.40;99.90
20827;DHT22;10574;52.508;13.236;2023-11-22T18:36:54;0.40;99.90
20827;DHT22;10574;52.508;13.236;2023-11-22T18:39:22;0.40;99.90
20827;DHT22;10574;52.508;13.236;2023-11-22T18:41:50;0.40;99.90
20827;DHT22;10574;52.508;13.236;2023-11-22T18:44:19;0.30;99.90
20827;DHT22;10574;52.508;13.236;2023-11-22T18:46:47;0.30;99.90
20827;DHT22;10574;52.508;13.236;2023-11-22T18:49:15;0.30;99.90